sensor_id;sensor_type;location;lat;lon;timestamp;temperature;humidity
25918;DHT22;13899;51.174;4.456;2023-02-27T00:02:01;4.60;99.90
25918;DHT22;13899;51.174;4.456;2023-02-27T00:04:27;4.80;99.90
25918;DHT22;13899;51.174;4.456;2023-02-27T00:06:52;4.70;99.90
25918;DHT22;13899;51.174;4.456;2023-02-27T00:09:18;4.80;99.90
25918;DHT22;13899;51.174;4.456;2023-02-27T00:11:43;4.90;99.90
25918;DHT22;13899;51.174;4.456;2023-02-27T00:14:09;4.90;99.90
25918;DHT22;13899;51.174;4.456;2023-02-27T00:16:35;4.70;99.90
25918;DHT22;13899;51.174;4.456;2023-02-27T00:19:01;4.60;99.90
25918;DHT22;13899;51.174;4.456;2023-02-27T00:21:29;4.30;99.90
25918;DHT22;13899;51.174;4.456;2023-02-27T00:23:55;4.20;99.90
25918;DHT22;13899;51.174;4.456;2023-02-27T00:26:21;4.10;99.90
25918;DHT22;13899;51.174;4.456;2023-02-27T00:28:47;4.00;99.90
25918;DHT22;13899;51.174;4.456;2023-02-27T00:31:13;4.00;99.90
25918;DHT22;13899;51.174;4.456;2023-02-27T00:33:38;4.00;99.90
25918;DHT22;13899;51.174;4.456;2023-02-27T00:36:04;4.10;99.90
25918;DHT22;13899;51.174;4.456;2023-02-27T00:38:30;4.20;99.90
25918;DHT22;13899;51.174;4.456;2023-02-27T00:40:56;4.30;99.90
25918;DHT22;13899;51.174;4.456;2023-02-27T00:43:21;4.00;99.90
25918;DHT22;13899;51.174;4.456;2023-02-27T00:45:47;4.10;99.90
25918;DHT22;13899;51.174;4.456;2023-02-27T00:48:14;4.10;99.90
25918;DHT22;13899;51.174;4.456;2023-02-27T00:50:39;4.10;99.90
25918;DHT22;13899;51.174;4.456;2023-02-27T00:53:05;4.10;99.90
25918;DHT22;13899;51.174;4.456;2023-02-27T00:55:31;4.10;99.90
25918;DHT22;13899;51.174;4.456;2023-02-27T00:58:15;3.80;99.90
25918;DHT22;13899;51.174;4.456;2023-02-27T01:00:41;3.30;99.90
25918;DHT22;13899;51.174;4.456;2023-02-27T01:03:06;3.30;99.90
25918;DHT22;13899;51.174;4.456;2023-02-27T01:05:32;3.50;99.90
25918;DHT22;13899;51.174;4.456;2023-02-27T01:07:58;3.70;99.90
25918;DHT22;13899;51.174;4.456;2023-02-27T01:10:23;4.20;99.90
25918;DHT22;13899;51.174;4.456;2023-02-27T01:12:49;4.30;99.90
25918;DHT22;13899;51.174;4.456;2023-02-27T01:15:15;4.30;99.90
25918;DHT22;13899;51.174;4.456;2023-02-27T01:17:41;4.20;99.90
25918;DHT22;13899;51.174;4.456;2023-02-27T01:20:09;3.80;99.90
25918;DHT22;13899;51.174;4.456;2023-02-27T01:22:36;3.70;99.90
25918;DHT22;13899;51.174;4.456;2023-02-27T01:25:01;3.90;99.90
25918;DHT22;13899;51.174;4.456;2023-02-27T01:27:27;4.20;99.90
25918;DHT22;13899;51.174;4.456;2023-02-27T01:29:53;4.40;99.90
25918;DHT22;13899;51.174;4.456;2023-02-27T01:32:18;4.60;99.90
25918;DHT22;13899;51.174;4.456;2023-02-27T01:34:44;4.60;99.90
25918;DHT22;13899;51.174;4.456;2023-02-27T01:37:10;4.40;99.90
25918;DHT22;13899;51.174;4.456;2023-02-27T01:39:35;4.50;99.90
25918;DHT22;13899;51.174;4.456;2023-02-27T01:42:01;4.60;99.90
25918;DHT22;13899;51.174;4.456;2023-02-27T01:44:29;4.50;99.90
25918;DHT22;13899;51.174;4.456;2023-02-27T01:46:55;4.70;99.90
25918;DHT22;13899;51.174;4.456;2023-02-27T01:51:52;4.60;99.90
25918;DHT22;13899;51.174;4.456;2023-02-27T01:54:21;4.50;99.90
25918;DHT22;13899;51.174;4.456;2023-02-27T01:56:49;4.50;99.90
25918;DHT22;13899;51.174;4.456;2023-02-27T01:59:28;4.20;99.90
25918;DHT22;13899;51.174;4.456;2023-02-27T02:02:09;3.90;99.90
25918;DHT22;13899;51.174;4.456;2023-02-27T02:04:38;4.20;99.90
25918;DHT22;13899;51.174;4.456;2023-02-27T02:07:08;4.10;99.90
25918;DHT22;13899;51.174;4.456;2023-02-27T02:09:43;4.00;99.90
25918;DHT22;13899;51.174;4.456;2023-02-27T02:12:13;3.90;99.90
25918;DHT22;13899;51.174;4.456;2023-02-27T02:14:38;3.70;99.90
25918;DHT22;13899;51.174;4.456;2023-02-27T02:40:18;3.60;99.90
25918;DHT22;13899;51.174;4.456;2023-02-27T02:48:18;3.80;99.90
25918;DHT22;13899;51.174;4.456;2023-02-27T02:51:00;4.00;99.90
25918;DHT22;13899;51.174;4.456;2023-02-27T02:54:01;4.00;99.90
25918;DHT22;13899;51.174;4.456;2023-02-27T02:56:35;4.10;99.90
25918;DHT22;13899;51.174;4.456;2023-02-27T02:59:08;4.00;99.90
25918;DHT22;13899;51.174;4.456;2023-02-27T03:01:40;3.70;99.90
25918;DHT22;13899;51.174;4.456;2023-02-27T03:04:15;3.60;99.90
25918;DHT22;13899;51.174;4.456;2023-02-27T03:06:46;3.70;99.90
25918;DHT22;13899;51.174;4.456;2023-02-27T03:09:19;3.60;99.90
25918;DHT22;13899;51.174;4.456;2023-02-27T03:11:50;3.30;99.90
25918;DHT22;13899;51.174;4.456;2023-02-27T03:15:07;3.50;99.90
25918;DHT22;13899;51.174;4.456;2023-02-27T03:17:14;3.80;99.90
25918;DHT22;13899;51.174;4.456;2023-02-27T03:19:51;4.00;99.90
25918;DHT22;13899;51.174;4.456;2023-02-27T03:22:22;4.00;99.90
25918;DHT22;13899;51.174;4.456;2023-02-27T03:24:52;4.10;99.90
25918;DHT22;13899;51.174;4.456;2023-02-27T03:27:19;4.00;99.90
25918;DHT22;13899;51.174;4.456;2023-02-27T03:30:02;4.10;99.90
25918;DHT22;13899;51.174;4.456;2023-02-27T03:32:36;3.80;99.90
25918;DHT22;13899;51.174;4.456;2023-02-27T03:35:04;3.80;99.90
25918;DHT22;13899;51.174;4.456;2023-02-27T03:43:01;3.70;99.90
25918;DHT22;13899;51.174;4.456;2023-02-27T03:48:03;3.50;99.90
25918;DHT22;13899;51.174;4.456;2023-02-27T03:50:30;3.20;99.90
25918;DHT22;13899;51.174;4.456;2023-02-27T03:52:56;3.30;99.90
25918;DHT22;13899;51.174;4.456;2023-02-27T03:55:27;3.40;99.90
25918;DHT22;13899;51.174;4.456;2023-02-27T03:57:54;3.80;99.90
25918;DHT22;13899;51.174;4.456;2023-02-27T04:00:22;3.90;99.90
25918;DHT22;13899;51.174;4.456;2023-02-27T04:02:50;3.80;99.90
25918;DHT22;13899;51.174;4.456;2023-02-27T04:05:18;3.80;99.90
25918;DHT22;13899;51.174;4.456;2023-02-27T04:10:41;3.40;99.90
25918;DHT22;13899;51.174;4.456;2023-02-27T04:13:16;3.60;99.90
25918;DHT22;13899;51.174;4.456;2023-02-27T04:18:50;3.80;99.90
25918;DHT22;13899;51.174;4.456;2023-02-27T04:24:27;3.80;99.90
25918;DHT22;13899;51.174;4.456;2023-02-27T04:27:19;3.80;99.90
25918;DHT22;13899;51.174;4.456;2023-02-27T04:29:54;3.90;99.90
25918;DHT22;13899;51.174;4.456;2023-02-27T04:32:38;3.90;99.90
25918;DHT22;13899;51.174;4.456;2023-02-27T04:35:10;4.10;99.90
25918;DHT22;13899;51.174;4.456;2023-02-27T04:37:47;3.80;99.90
25918;DHT22;13899;51.174;4.456;2023-02-27T04:40:20;3.70;99.90
25918;DHT22;13899;51.174;4.456;2023-02-27T04:42:50;3.80;99.90
25918;DHT22;13899;51.174;4.456;2023-02-27T04:45:21;3.60;99.90
25918;DHT22;13899;51.174;4.456;2023-02-27T04:47:59;3.70;99.90
25918;DHT22;13899;51.174;4.456;2023-02-27T04:50:37;3.90;99.90
25918;DHT22;13899;51.174;4.456;2023-02-27T04:53:47;4.00;99.90
25918;DHT22;13899;51.174;4.456;2023-02-27T04:56:10;3.70;99.90
25918;DHT22;13899;51.174;4.456;2023-02-27T04:58:48;4.00;99.90
25918;DHT22;13899;51.174;4.456;2023-02-27T05:01:28;4.10;99.90
25918;DHT22;13899;51.174;4.456;2023-02-27T05:03:55;4.20;99.90
25918;DHT22;13899;51.174;4.456;2023-02-27T05:06:26;4.10;99.90
25918;DHT22;13899;51.174;4.456;2023-02-27T05:14:34;3.90;99.90
25918;DHT22;13899;51.174;4.456;2023-02-27T05:17:12;3.90;99.90
25918;DHT22;13899;51.174;4.456;2023-02-27T05:19:40;3.90;99.90
25918;DHT22;13899;51.174;4.456;2023-02-27T05:22:22;4.20;99.90
25918;DHT22;13899;51.174;4.456;2023-02-27T05:24:56;4.10;99.90
25918;DHT22;13899;51.174;4.456;2023-02-27T05:27:45;4.10;99.90
25918;DHT22;13899;51.174;4.456;2023-02-27T05:30:28;4.00;99.90
25918;DHT22;13899;51.174;4.456;2023-02-27T05:33:02;3.90;99.90
25918;DHT22;13899;51.174;4.456;2023-02-27T05:35:33;4.00;99.90
25918;DHT22;13899;51.174;4.456;2023-02-27T05:40:42;4.10;99.90
25918;DHT22;13899;51.174;4.456;2023-02-27T05:43:14;4.10;99.90
25918;DHT22;13899;51.174;4.456;2023-02-27T05:45:43;4.40;99.90
25918;DHT22;13899;51.174;4.456;2023-02-27T05:48:17;4.30;99.90
25918;DHT22;13899;51.174;4.456;2023-02-27T05:50:47;4.10;99.90
25918;DHT22;13899;51.174;4.456;2023-02-27T05:53:17;4.40;99.90
25918;DHT22;13899;51.174;4.456;2023-02-27T05:55:47;4.30;99.90
25918;DHT22;13899;51.174;4.456;2023-02-27T06:00:53;3.90;99.90
25918;DHT22;13899;51.174;4.456;2023-02-27T06:03:21;3.90;99.90
25918;DHT22;13899;51.174;4.456;2023-02-27T06:05:48;3.90;99.90
25918;DHT22;13899;51.174;4.456;2023-02-27T06:08:17;4.00;99.90
25918;DHT22;13899;51.174;4.456;2023-02-27T06:10:43;4.00;99.90
25918;DHT22;13899;51.174;4.456;2023-02-27T06:13:08;4.00;99.90
25918;DHT22;13899;51.174;4.456;2023-02-27T06:15:34;3.60;99.90
25918;DHT22;13899;51.174;4.456;2023-02-27T06:17:59;3.60;99.90
25918;DHT22;13899;51.174;4.456;2023-02-27T06:20:25;3.50;99.90
25918;DHT22;13899;51.174;4.456;2023-02-27T06:22:51;3.40;99.90
25918;DHT22;13899;51.174;4.456;2023-02-27T06:25:16;3.40;99.90
25918;DHT22;13899;51.174;4.456;2023-02-27T06:27:42;2.90;99.90
25918;DHT22;13899;51.174;4.456;2023-02-27T06:30:08;3.00;99.90
25918;DHT22;13899;51.174;4.456;2023-02-27T06:32:34;3.20;99.90
25918;DHT22;13899;51.174;4.456;2023-02-27T06:34:59;3.30;99.90
25918;DHT22;13899;51.174;4.456;2023-02-27T06:37:25;3.20;99.90
25918;DHT22;13899;51.174;4.456;2023-02-27T06:39:51;3.60;99.90
25918;DHT22;13899;51.174;4.456;2023-02-27T06:42:16;3.50;99.90
25918;DHT22;13899;51.174;4.456;2023-02-27T06:44:42;3.30;99.90
25918;DHT22;13899;51.174;4.456;2023-02-27T06:47:07;3.20;99.90
25918;DHT22;13899;51.174;4.456;2023-02-27T06:49:33;2.90;99.90
25918;DHT22;13899;51.174;4.456;2023-02-27T06:51:59;3.00;99.90
25918;DHT22;13899;51.174;4.456;2023-02-27T06:54:24;2.80;99.90
25918;DHT22;13899;51.174;4.456;2023-02-27T06:56:50;2.70;99.90
25918;DHT22;13899;51.174;4.456;2023-02-27T06:59:16;2.50;99.90
25918;DHT22;13899;51.174;4.456;2023-02-27T07:01:42;2.60;99.90
25918;DHT22;13899;51.174;4.456;2023-02-27T07:04:11;2.70;99.90
25918;DHT22;13899;51.174;4.456;2023-02-27T07:06:37;2.80;99.90
25918;DHT22;13899;51.174;4.456;2023-02-27T07:09:03;3.00;99.90
25918;DHT22;13899;51.174;4.456;2023-02-27T07:11:28;3.10;99.90
25918;DHT22;13899;51.174;4.456;2023-02-27T07:13:54;3.00;99.90
25918;DHT22;13899;51.174;4.456;2023-02-27T07:16:20;3.20;99.90
25918;DHT22;13899;51.174;4.456;2023-02-27T07:18:46;3.10;99.90
25918;DHT22;13899;51.174;4.456;2023-02-27T07:21:11;2.90;99.90
25918;DHT22;13899;51.174;4.456;2023-02-27T07:23:37;2.60;99.90
25918;DHT22;13899;51.174;4.456;2023-02-27T07:26:03;2.30;99.90
25918;DHT22;13899;51.174;4.456;2023-02-27T07:28:29;2.10;99.90
25918;DHT22;13899;51.174;4.456;2023-02-27T07:30:55;1.70;99.90
25918;DHT22;13899;51.174;4.456;2023-02-27T07:33:21;1.90;99.90
25918;DHT22;13899;51.174;4.456;2023-02-27T07:35:48;2.30;99.90
25918;DHT22;13899;51.174;4.456;2023-02-27T07:38:14;2.50;99.90
25918;DHT22;13899;51.174;4.456;2023-02-27T07:40:39;2.70;99.90
25918;DHT22;13899;51.174;4.456;2023-02-27T07:43:06;3.10;99.90
25918;DHT22;13899;51.174;4.456;2023-02-27T07:45:32;3.30;99.90
25918;DHT22;13899;51.174;4.456;2023-02-27T07:47:58;3.30;99.90
25918;DHT22;13899;51.174;4.456;2023-02-27T07:50:24;3.60;99.90
25918;DHT22;13899;51.174;4.456;2023-02-27T07:52:51;3.70;99.90
25918;DHT22;13899;51.174;4.456;2023-02-27T07:55:16;3.50;99.90
25918;DHT22;13899;51.174;4.456;2023-02-27T07:57:43;3.70;99.90
25918;DHT22;13899;51.174;4.456;2023-02-27T08:00:10;3.40;99.90
25918;DHT22;13899;51.174;4.456;2023-02-27T08:02:36;3.20;99.90
25918;DHT22;13899;51.174;4.456;2023-02-27T08:05:01;3.30;99.90
25918;DHT22;13899;51.174;4.456;2023-02-27T08:07:27;3.30;99.90
25918;DHT22;13899;51.174;4.456;2023-02-27T08:09:53;3.40;99.90
25918;DHT22;13899;51.174;4.456;2023-02-27T08:12:18;3.40;99.90
25918;DHT22;13899;51.174;4.456;2023-02-27T08:14:44;3.40;99.90
25918;DHT22;13899;51.174;4.456;2023-02-27T08:17:10;3.50;99.90
25918;DHT22;13899;51.174;4.456;2023-02-27T08:19:35;3.70;99.90
25918;DHT22;13899;51.174;4.456;2023-02-27T08:22:01;4.10;99.90
25918;DHT22;13899;51.174;4.456;2023-02-27T08:24:26;4.20;99.90
25918;DHT22;13899;51.174;4.456;2023-02-27T08:26:52;4.20;99.90
25918;DHT22;13899;51.174;4.456;2023-02-27T08:29:18;4.00;99.90
25918;DHT22;13899;51.174;4.456;2023-02-27T08:31:44;3.90;99.90
25918;DHT22;13899;51.174;4.456;2023-02-27T08:34:11;4.20;99.90
25918;DHT22;13899;51.174;4.456;2023-02-27T08:36:37;4.30;99.90
25918;DHT22;13899;51.174;4.456;2023-02-27T08:39:06;4.50;99.90
25918;DHT22;13899;51.174;4.456;2023-02-27T08:41:35;4.40;99.90
25918;DHT22;13899;51.174;4.456;2023-02-27T08:44:01;4.40;99.90
25918;DHT22;13899;51.174;4.456;2023-02-27T08:46:27;4.60;99.90
25918;DHT22;13899;51.174;4.456;2023-02-27T08:48:52;4.70;99.90
25918;DHT22;13899;51.174;4.456;2023-02-27T08:51:19;4.60;99.90
25918;DHT22;13899;51.174;4.456;2023-02-27T08:53:44;4.70;99.90
25918;DHT22;13899;51.174;4.456;2023-02-27T08:56:10;4.90;99.90
25918;DHT22;13899;51.174;4.456;2023-02-27T08:58:35;5.00;99.90
25918;DHT22;13899;51.174;4.456;2023-02-27T09:01:01;4.80;99.90
25918;DHT22;13899;51.174;4.456;2023-02-27T09:03:27;4.90;99.90
25918;DHT22;13899;51.174;4.456;2023-02-27T09:05:54;5.20;99.90
25918;DHT22;13899;51.174;4.456;2023-02-27T09:08:20;5.10;99.90
25918;DHT22;13899;51.174;4.456;2023-02-27T09:10:46;5.20;99.90
25918;DHT22;13899;51.174;4.456;2023-02-27T09:13:11;5.00;99.90
25918;DHT22;13899;51.174;4.456;2023-02-27T09:15:37;5.00;99.90
25918;DHT22;13899;51.174;4.456;2023-02-27T09:18:04;5.50;99.90
25918;DHT22;13899;51.174;4.456;2023-02-27T09:20:32;5.30;99.90
25918;DHT22;13899;51.174;4.456;2023-02-27T09:22:58;5.50;99.90
25918;DHT22;13899;51.174;4.456;2023-02-27T09:25:24;5.40;99.90
25918;DHT22;13899;51.174;4.456;2023-02-27T09:27:50;5.70;99.90
25918;DHT22;13899;51.174;4.456;2023-02-27T09:30:16;5.90;99.90
25918;DHT22;13899;51.174;4.456;2023-02-27T09:32:41;5.70;99.90
25918;DHT22;13899;51.174;4.456;2023-02-27T09:35:07;5.50;99.90
25918;DHT22;13899;51.174;4.456;2023-02-27T09:37:33;5.70;99.90
25918;DHT22;13899;51.174;4.456;2023-02-27T09:39:59;5.80;99.90
25918;DHT22;13899;51.174;4.456;2023-02-27T09:42:29;6.20;99.90
25918;DHT22;13899;51.174;4.456;2023-02-27T09:45:00;6.20;99.90
25918;DHT22;13899;51.174;4.456;2023-02-27T09:47:36;6.50;99.90
25918;DHT22;13899;51.174;4.456;2023-02-27T09:50:06;6.80;99.90
25918;DHT22;13899;51.174;4.456;2023-02-27T09:52:38;7.00;99.90
25918;DHT22;13899;51.174;4.456;2023-02-27T09:55:09;7.20;99.90
25918;DHT22;13899;51.174;4.456;2023-02-27T09:57:46;7.30;99.90
25918;DHT22;13899;51.174;4.456;2023-02-27T10:02:54;7.30;99.90
25918;DHT22;13899;51.174;4.456;2023-02-27T10:08:09;8.30;99.90
25918;DHT22;13899;51.174;4.456;2023-02-27T10:10:55;8.60;99.90
25918;DHT22;13899;51.174;4.456;2023-02-27T10:13:56;8.60;99.90
25918;DHT22;13899;51.174;4.456;2023-02-27T10:16:24;9.20;99.90
25918;DHT22;13899;51.174;4.456;2023-02-27T10:18:57;9.20;99.90
25918;DHT22;13899;51.174;4.456;2023-02-27T10:21:36;10.20;99.90
25918;DHT22;13899;51.174;4.456;2023-02-27T10:24:25;10.20;99.90
25918;DHT22;13899;51.174;4.456;2023-02-27T10:26:53;10.50;99.90
25918;DHT22;13899;51.174;4.456;2023-02-27T10:29:35;10.60;99.90
25918;DHT22;13899;51.174;4.456;2023-02-27T10:32:29;10.70;99.90
25918;DHT22;13899;51.174;4.456;2023-02-27T10:35:09;10.90;99.90
25918;DHT22;13899;51.174;4.456;2023-02-27T10:37:47;11.40;99.90
25918;DHT22;13899;51.174;4.456;2023-02-27T10:40:14;11.20;99.90
25918;DHT22;13899;51.174;4.456;2023-02-27T10:42:41;11.50;99.90
25918;DHT22;13899;51.174;4.456;2023-02-27T10:45:12;10.80;99.90
25918;DHT22;13899;51.174;4.456;2023-02-27T10:47:42;11.30;99.90
25918;DHT22;13899;51.174;4.456;2023-02-27T10:52:56;12.20;99.90
25918;DHT22;13899;51.174;4.456;2023-02-27T10:55:29;12.20;99.90
25918;DHT22;13899;51.174;4.456;2023-02-27T10:57:56;13.40;99.90
25918;DHT22;13899;51.174;4.456;2023-02-27T11:00:31;13.30;99.90
25918;DHT22;13899;51.174;4.456;2023-02-27T11:03:00;12.60;99.90
25918;DHT22;13899;51.174;4.456;2023-02-27T11:05:26;12.40;99.90
25918;DHT22;13899;51.174;4.456;2023-02-27T11:08:09;12.30;99.90
25918;DHT22;13899;51.174;4.456;2023-02-27T11:10:36;12.70;99.90
25918;DHT22;13899;51.174;4.456;2023-02-27T11:13:04;13.50;99.70
25918;DHT22;13899;51.174;4.456;2023-02-27T11:15:35;13.70;99.00
25918;DHT22;13899;51.174;4.456;2023-02-27T11:20:46;13.30;95.60
25918;DHT22;13899;51.174;4.456;2023-02-27T11:23:24;13.60;96.00
25918;DHT22;13899;51.174;4.456;2023-02-27T11:25:50;14.30;94.50
25918;DHT22;13899;51.174;4.456;2023-02-27T11:28:32;14.50;93.10
25918;DHT22;13899;51.174;4.456;2023-02-27T11:31:04;14.50;93.20
25918;DHT22;13899;51.174;4.456;2023-02-27T11:33:34;14.80;93.10
25918;DHT22;13899;51.174;4.456;2023-02-27T11:36:01;14.30;91.70
25918;DHT22;13899;51.174;4.456;2023-02-27T11:38:28;14.70;92.40
25918;DHT22;13899;51.174;4.456;2023-02-27T11:41:01;14.20;90.40
25918;DHT22;13899;51.174;4.456;2023-02-27T11:46:00;14.00;92.80
25918;DHT22;13899;51.174;4.456;2023-02-27T11:48:34;15.20;90.80
25918;DHT22;13899;51.174;4.456;2023-02-27T11:51:08;16.40;87.60
25918;DHT22;13899;51.174;4.456;2023-02-27T11:56:17;17.20;75.80
25918;DHT22;13899;51.174;4.456;2023-02-27T11:59:15;15.50;76.10
25918;DHT22;13899;51.174;4.456;2023-02-27T12:02:04;15.40;80.00
25918;DHT22;13899;51.174;4.456;2023-02-27T12:05:00;15.40;79.30
25918;DHT22;13899;51.174;4.456;2023-02-27T12:07:34;15.60;79.30
25918;DHT22;13899;51.174;4.456;2023-02-27T12:12:45;14.80;77.70
25918;DHT22;13899;51.174;4.456;2023-02-27T12:15:17;14.90;79.70
25918;DHT22;13899;51.174;4.456;2023-02-27T12:17:51;15.10;79.40
25918;DHT22;13899;51.174;4.456;2023-02-27T12:20:25;15.40;78.80
25918;DHT22;13899;51.174;4.456;2023-02-27T12:22:53;15.50;80.80
25918;DHT22;13899;51.174;4.456;2023-02-27T12:27:59;16.70;72.70
25918;DHT22;13899;51.174;4.456;2023-02-27T12:30:33;16.50;69.90
25918;DHT22;13899;51.174;4.456;2023-02-27T12:35:54;17.00;68.50
25918;DHT22;13899;51.174;4.456;2023-02-27T12:38:22;16.90;65.90
25918;DHT22;13899;51.174;4.456;2023-02-27T12:43:43;17.50;67.30
25918;DHT22;13899;51.174;4.456;2023-02-27T12:46:33;17.40;65.00
25918;DHT22;13899;51.174;4.456;2023-02-27T12:52:05;15.30;68.20
25918;DHT22;13899;51.174;4.456;2023-02-27T12:57:36;16.60;66.60
25918;DHT22;13899;51.174;4.456;2023-02-27T13:00:15;16.70;65.50
25918;DHT22;13899;51.174;4.456;2023-02-27T13:03:03;16.40;67.00
25918;DHT22;13899;51.174;4.456;2023-02-27T13:05:46;16.20;67.60
25918;DHT22;13899;51.174;4.456;2023-02-27T13:11:20;16.00;66.50
25918;DHT22;13899;51.174;4.456;2023-02-27T13:16:48;15.60;67.90
25918;DHT22;13899;51.174;4.456;2023-02-27T13:20:02;14.50;67.70
25918;DHT22;13899;51.174;4.456;2023-02-27T13:22:40;12.80;74.60
25918;DHT22;13899;51.174;4.456;2023-02-27T13:25:13;12.70;76.50
25918;DHT22;13899;51.174;4.456;2023-02-27T13:27:46;13.10;80.20
25918;DHT22;13899;51.174;4.456;2023-02-27T13:30:51;13.30;78.90
25918;DHT22;13899;51.174;4.456;2023-02-27T13:33:19;13.90;75.60
25918;DHT22;13899;51.174;4.456;2023-02-27T13:38:46;16.00;73.00
25918;DHT22;13899;51.174;4.456;2023-02-27T13:43:56;14.70;74.90
25918;DHT22;13899;51.174;4.456;2023-02-27T13:46:32;13.90;75.90
25918;DHT22;13899;51.174;4.456;2023-02-27T13:51:40;13.10;79.20
25918;DHT22;13899;51.174;4.456;2023-02-27T13:59:11;10.90;90.30
25918;DHT22;13899;51.174;4.456;2023-02-27T14:01:38;11.00;91.50
25918;DHT22;13899;51.174;4.456;2023-02-27T14:04:06;11.10;91.10
25918;DHT22;13899;51.174;4.456;2023-02-27T14:06:33;11.20;91.30
25918;DHT22;13899;51.174;4.456;2023-02-27T14:09:10;11.30;90.30
25918;DHT22;13899;51.174;4.456;2023-02-27T14:11:36;11.10;90.80
25918;DHT22;13899;51.174;4.456;2023-02-27T14:14:47;10.80;91.70
25918;DHT22;13899;51.174;4.456;2023-02-27T14:25:44;11.00;94.30
25918;DHT22;13899;51.174;4.456;2023-02-27T14:31:24;11.50;93.20
25918;DHT22;13899;51.174;4.456;2023-02-27T14:33:52;11.50;91.70
25918;DHT22;13899;51.174;4.456;2023-02-27T14:36:32;11.60;92.20
25918;DHT22;13899;51.174;4.456;2023-02-27T14:39:03;11.10;92.40
25918;DHT22;13899;51.174;4.456;2023-02-27T14:41:41;11.10;93.50
25918;DHT22;13899;51.174;4.456;2023-02-27T14:44:40;11.50;94.30
25918;DHT22;13899;51.174;4.456;2023-02-27T14:47:14;11.30;93.50
25918;DHT22;13899;51.174;4.456;2023-02-27T14:49:45;11.00;93.40
25918;DHT22;13899;51.174;4.456;2023-02-27T14:52:39;11.00;94.40
25918;DHT22;13899;51.174;4.456;2023-02-27T14:57:57;12.60;92.70
25918;DHT22;13899;51.174;4.456;2023-02-27T15:00:47;14.20;88.80
25918;DHT22;13899;51.174;4.456;2023-02-27T15:03:21;15.70;82.20
25918;DHT22;13899;51.174;4.456;2023-02-27T15:05:54;16.00;75.90
25918;DHT22;13899;51.174;4.456;2023-02-27T15:08:35;14.70;78.00
25918;DHT22;13899;51.174;4.456;2023-02-27T15:11:02;13.40;81.80
25918;DHT22;13899;51.174;4.456;2023-02-27T15:13:30;12.10;88.50
25918;DHT22;13899;51.174;4.456;2023-02-27T15:18:47;12.80;89.00
25918;DHT22;13899;51.174;4.456;2023-02-27T15:21:16;12.20;88.90
25918;DHT22;13899;51.174;4.456;2023-02-27T15:23:43;11.50;90.20
25918;DHT22;13899;51.174;4.456;2023-02-27T15:26:12;11.40;91.90
25918;DHT22;13899;51.174;4.456;2023-02-27T15:28:38;11.50;92.00
25918;DHT22;13899;51.174;4.456;2023-02-27T15:31:08;12.50;91.60
25918;DHT22;13899;51.174;4.456;2023-02-27T15:33:35;12.70;90.30
25918;DHT22;13899;51.174;4.456;2023-02-27T15:36:01;12.70;89.00
25918;DHT22;13899;51.174;4.456;2023-02-27T15:38:35;12.70;89.70
25918;DHT22;13899;51.174;4.456;2023-02-27T15:41:03;12.70;90.10
25918;DHT22;13899;51.174;4.456;2023-02-27T15:43:30;12.20;90.10
25918;DHT22;13899;51.174;4.456;2023-02-27T15:45:56;11.40;90.60
25918;DHT22;13899;51.174;4.456;2023-02-27T15:48:23;10.90;92.00
25918;DHT22;13899;51.174;4.456;2023-02-27T15:50:53;10.20;93.30
25918;DHT22;13899;51.174;4.456;2023-02-27T15:53:24;10.50;94.10
25918;DHT22;13899;51.174;4.456;2023-02-27T15:55:56;10.80;92.80
25918;DHT22;13899;51.174;4.456;2023-02-27T15:58:32;11.00;92.80
25918;DHT22;13899;51.174;4.456;2023-02-27T16:01:21;11.10;92.40
25918;DHT22;13899;51.174;4.456;2023-02-27T16:04:02;10.90;92.70
25918;DHT22;13899;51.174;4.456;2023-02-27T16:06:34;11.30;92.60
25918;DHT22;13899;51.174;4.456;2023-02-27T16:09:05;12.20;90.30
25918;DHT22;13899;51.174;4.456;2023-02-27T16:11:34;12.40;88.90
25918;DHT22;13899;51.174;4.456;2023-02-27T16:14:01;12.60;90.00
25918;DHT22;13899;51.174;4.456;2023-02-27T16:16:38;12.40;89.60
25918;DHT22;13899;51.174;4.456;2023-02-27T16:19:22;12.40;87.20
25918;DHT22;13899;51.174;4.456;2023-02-27T16:22:14;13.20;86.70
25918;DHT22;13899;51.174;4.456;2023-02-27T16:24:41;13.30;84.00
25918;DHT22;13899;51.174;4.456;2023-02-27T16:27:33;12.90;82.50
25918;DHT22;13899;51.174;4.456;2023-02-27T16:30:19;11.80;87.00
25918;DHT22;13899;51.174;4.456;2023-02-27T16:32:57;10.80;89.80
25918;DHT22;13899;51.174;4.456;2023-02-27T16:35:45;9.80;92.00
25918;DHT22;13899;51.174;4.456;2023-02-27T16:38:13;9.60;93.00
25918;DHT22;13899;51.174;4.456;2023-02-27T16:40:56;9.60;94.40
25918;DHT22;13899;51.174;4.456;2023-02-27T16:43:30;9.60;94.30
25918;DHT22;13899;51.174;4.456;2023-02-27T16:45:59;9.80;94.00
25918;DHT22;13899;51.174;4.456;2023-02-27T16:49:01;9.70;94.60
25918;DHT22;13899;51.174;4.456;2023-02-27T16:51:30;8.70;96.60
25918;DHT22;13899;51.174;4.456;2023-02-27T16:54:04;8.30;99.20
25918;DHT22;13899;51.174;4.456;2023-02-27T16:56:30;8.50;99.10
25918;DHT22;13899;51.174;4.456;2023-02-27T16:58:57;8.50;99.90
25918;DHT22;13899;51.174;4.456;2023-02-27T17:01:26;8.50;99.90
25918;DHT22;13899;51.174;4.456;2023-02-27T17:03:58;8.40;99.90
25918;DHT22;13899;51.174;4.456;2023-02-27T17:06:24;8.50;99.90
25918;DHT22;13899;51.174;4.456;2023-02-27T17:08:50;8.50;99.90
25918;DHT22;13899;51.174;4.456;2023-02-27T17:11:15;9.00;99.90
25918;DHT22;13899;51.174;4.456;2023-02-27T17:13:41;9.20;99.90
25918;DHT22;13899;51.174;4.456;2023-02-27T17:16:07;8.90;99.90
25918;DHT22;13899;51.174;4.456;2023-02-27T17:18:33;8.60;99.90
25918;DHT22;13899;51.174;4.456;2023-02-27T17:21:03;8.30;99.90
25918;DHT22;13899;51.174;4.456;2023-02-27T17:24:07;8.30;99.90
25918;DHT22;13899;51.174;4.456;2023-02-27T17:27:11;8.40;99.90
25918;DHT22;13899;51.174;4.456;2023-02-27T17:29:55;8.70;99.90
25918;DHT22;13899;51.174;4.456;2023-02-27T17:32:21;8.70;99.90
25918;DHT22;13899;51.174;4.456;2023-02-27T17:34:51;8.40;99.90
25918;DHT22;13899;51.174;4.456;2023-02-27T17:37:42;8.10;99.90
25918;DHT22;13899;51.174;4.456;2023-02-27T17:40:09;8.10;99.90
25918;DHT22;13899;51.174;4.456;2023-02-27T17:42:39;8.10;99.90
25918;DHT22;13899;51.174;4.456;2023-02-27T17:45:06;8.30;99.90
25918;DHT22;13899;51.174;4.456;2023-02-27T17:47:33;8.20;99.90
25918;DHT22;13899;51.174;4.456;2023-02-27T17:49:59;8.00;99.90
25918;DHT22;13899;51.174;4.456;2023-02-27T17:52:24;7.90;99.90
25918;DHT22;13899;51.174;4.456;2023-02-27T17:54:51;7.80;99.90
25918;DHT22;13899;51.174;4.456;2023-02-27T17:57:17;7.90;99.90
25918;DHT22;13899;51.174;4.456;2023-02-27T17:59:46;8.00;99.90
25918;DHT22;13899;51.174;4.456;2023-02-27T18:02:39;8.10;99.90
25918;DHT22;13899;51.174;4.456;2023-02-27T18:05:06;8.20;99.90
25918;DHT22;13899;51.174;4.456;2023-02-27T18:07:35;8.10;99.90
25918;DHT22;13899;51.174;4.456;2023-02-27T18:10:08;8.10;99.90
25918;DHT22;13899;51.174;4.456;2023-02-27T18:12:48;8.10;99.90
25918;DHT22;13899;51.174;4.456;2023-02-27T18:15:18;8.00;99.90
25918;DHT22;13899;51.174;4.456;2023-02-27T18:17:49;7.70;99.90